Time;durP1;ratioP1;P1;durP2;ratioP2;P2;SDS_P1;SDS_P2;PMS_P1;PMS_P2;Temp;Humidity;BMP_temperature;BMP_pressure;BME280_temperature;BME280_humidity;BME280_pressure;Samples;Min_cycle;Max_cycle;Signal;HPM_P1;HPM_P2
2022/08/18 00:01:53;;;;;;;9.10;2.60;;;;;;;15.95;52.24;99868.25;5031707;28;20087;-77
2022/08/18 00:04:19;;;;;;;5.28;2.53;;;;;;;15.93;52.32;99859.47;4998768;28;20481;-78
2022/08/18 00:06:45;;;;;;;9.50;2.40;;;;;;;16.00;51.89;99881.31;5031788;28;20076;-79
2022/08/18 00:09:11;;;;;;;5.47;2.50;;;;;;;15.94;52.40;99882.72;5015290;28;20037;-78
2022/08/18 00:11:40;;;;;;;5.18;2.85;;;;;;;15.90;52.39;99875.91;5031662;28;20049;-78
2022/08/18 00:14:10;;;;;;;5.88;2.38;;;;;;;15.89;52.21;99894.94;4998724;28;20041;-78
2022/08/18 00:16:36;;;;;;;6.13;2.75;;;;;;;15.88;52.18;99893.25;5031554;28;20077;-79
2022/08/18 00:19:02;;;;;;;10.77;3.20;;;;;;;15.77;51.99;99891.53;5015629;28;20457;-77
2022/08/18 00:21:28;;;;;;;5.60;3.50;;;;;;;15.59;52.54;99894.06;5031823;28;20045;-77
2022/08/18 00:23:54;;;;;;;6.20;3.15;;;;;;;15.51;52.51;99888.53;5031685;28;20056;-77
2022/08/18 00:26:20;;;;;;;9.70;2.97;;;;;;;15.52;52.96;99899.16;5031498;28;20053;-78
2022/08/18 00:28:46;;;;;;;12.38;2.90;;;;;;;15.44;52.89;99896.31;5031694;28;20049;-77
2022/08/18 00:31:12;;;;;;;6.10;2.53;;;;;;;15.42;52.92;99889.34;5031733;28;20068;-77
2022/08/18 00:33:38;;;;;;;12.80;2.85;;;;;;;15.38;52.82;99885.25;4999687;28;20045;-78
2022/08/18 00:36:04;;;;;;;10.18;3.05;;;;;;;15.50;52.89;99884.16;5015086;28;20140;-79
2022/08/18 00:38:30;;;;;;;7.97;3.08;;;;;;;15.49;52.92;99883.25;5015071;28;20132;-77
2022/08/18 00:40:56;;;;;;;6.78;3.28;;;;;;;15.50;53.29;99881.44;5031305;28;20144;-78
2022/08/18 00:43:31;;;;;;;5.97;3.00;;;;;;;15.54;53.36;99877.47;5014908;28;20099;-77
2022/08/18 00:45:57;;;;;;;7.45;3.13;;;;;;;15.59;53.21;99877.91;5031329;28;20058;-75
2022/08/18 00:48:23;;;;;;;8.95;3.53;;;;;;;15.62;53.16;99871.38;5034335;28;20068;-76
2022/08/18 00:50:57;;;;;;;5.13;3.80;;;;;;;15.60;53.03;99868.81;5018780;28;20045;-77
2022/08/18 00:53:29;;;;;;;12.95;4.60;;;;;;;15.57;52.76;99858.34;5002795;28;20041;-76
2022/08/18 00:55:59;;;;;;;9.95;6.70;;;;;;;15.65;52.67;99877.38;5035121;28;20508;-77
2022/08/18 00:58:34;;;;;;;7.80;5.07;;;;;;;15.67;52.61;99878.06;5018779;28;20068;-77
2022/08/18 01:01:04;;;;;;;7.13;4.25;;;;;;;15.72;52.80;99880.31;5002927;28;20396;-76
2022/08/18 01:03:32;;;;;;;10.25;3.67;;;;;;;15.72;52.41;99875.81;5019092;28;20049;-76
2022/08/18 01:06:03;;;;;;;6.15;3.08;;;;;;;15.78;52.09;99871.69;5002316;28;20065;-78
2022/08/18 01:08:29;;;;;;;6.63;3.00;;;;;;;15.84;52.17;99878.34;5035096;28;20099;-77
2022/08/18 01:10:58;;;;;;;7.43;3.17;;;;;;;15.90;52.21;99885.84;5036220;28;20052;-77
2022/08/18 01:13:31;;;;;;;10.20;3.17;;;;;;;15.90;52.18;99866.97;5002028;28;20037;-76
2022/08/18 01:15:58;;;;;;;6.93;2.95;;;;;;;15.96;51.66;99877.19;5035008;28;20045;-77
2022/08/18 01:24:13;;;;;;;8.55;2.10;;;;;;;15.85;51.04;99886.28;5034933;28;20471;-79
2022/08/18 01:26:45;;;;;;;6.13;2.17;;;;;;;15.72;50.92;99888.41;5018123;28;20056;-79
2022/08/18 01:29:11;;;;;;;3.28;2.13;;;;;;;15.70;51.44;99898.50;5034999;28;20041;-79
2022/08/18 01:31:46;;;;;;;5.18;2.50;;;;;;;15.70;51.46;99891.25;5034653;28;20508;-78
2022/08/18 01:34:12;;;;;;;4.47;2.10;;;;;;;15.68;51.16;99887.88;5001743;28;20044;-79
2022/08/18 01:36:40;;;;;;;3.95;2.13;;;;;;;15.78;51.31;99898.63;5001671;28;20128;-79
2022/08/18 01:39:11;;;;;;;5.00;2.37;;;;;;;15.84;51.19;99892.69;5034489;28;20041;-79
2022/08/18 01:41:38;;;;;;;7.03;2.10;;;;;;;15.93;51.27;99885.56;5034207;28;20385;-77
2022/08/18 01:44:07;;;;;;;4.70;2.10;;;;;;;15.97;50.87;99892.38;5034661;28;20413;-77
2022/08/18 01:46:34;;;;;;;7.40;2.45;;;;;;;15.95;50.71;99883.59;5034101;28;20060;-78
2022/08/18 01:49:03;;;;;;;6.63;2.83;;;;;;;15.94;50.41;99871.09;5035653;28;20049;-78
2022/08/18 01:51:31;;;;;;;6.90;2.08;;;;;;;15.96;50.78;99871.81;5034089;28;20063;-77
2022/08/18 01:53:58;;;;;;;8.05;2.10;;;;;;;16.13;50.12;99875.59;5035311;28;20048;-79
2022/08/18 01:56:28;;;;;;;2.38;1.85;;;;;;;16.23;50.26;99877.28;5001557;28;20049;-78
2022/08/18 01:58:54;;;;;;;4.97;2.47;;;;;;;16.32;49.40;99866.59;5001364;28;20051;-79
2022/08/18 02:01:22;;;;;;;3.67;1.92;;;;;;;16.40;49.33;99867.59;5034079;28;20049;-77
2022/08/18 02:03:53;;;;;;;4.30;2.00;;;;;;;16.47;49.25;99868.69;5039786;28;20037;-78
2022/08/18 02:06:20;;;;;;;11.63;2.30;;;;;;;16.59;48.70;99877.47;5039099;28;20119;-78
2022/08/18 02:08:46;;;;;;;7.03;2.70;;;;;;;16.63;48.52;99878.00;5034987;28;20427;-79
2022/08/18 02:11:13;;;;;;;4.15;2.00;;;;;;;16.66;48.58;99883.09;5033415;28;20484;-79
2022/08/18 02:13:40;;;;;;;3.47;2.20;;;;;;;16.71;48.27;99880.81;5017198;28;20041;-78
2022/08/18 02:16:07;;;;;;;7.68;1.88;;;;;;;16.67;48.19;99872.16;5035212;28;20076;-77
2022/08/18 02:18:36;;;;;;;4.55;1.80;;;;;;;16.75;48.00;99899.28;5033593;28;20052;-78
2022/08/18 02:21:13;;;;;;;5.85;2.03;;;;;;;16.80;47.97;99900.69;5016755;28;20063;-80
2022/08/18 02:23:41;;;;;;;2.95;2.00;;;;;;;16.79;47.89;99904.41;5033561;28;20076;-79
2022/08/18 02:26:10;;;;;;;5.90;2.00;;;;;;;16.74;47.78;99896.75;5000447;28;20045;-78
2022/08/18 02:28:36;;;;;;;2.78;1.92;;;;;;;16.79;48.21;99909.78;5034829;28;20046;-81
2022/08/18 02:31:22;;;;;;;8.65;2.28;;;;;;;16.76;47.92;99913.63;5033691;28;20061;-78
2022/08/18 02:33:48;;;;;;;6.45;3.00;;;;;;;16.72;48.10;99893.31;5016986;28;20136;-77
2022/08/18 02:36:14;;;;;;;5.72;2.22;;;;;;;16.77;48.26;99893.72;5033229;28;20137;-77
2022/08/18 02:38:41;;;;;;;4.68;2.55;;;;;;;16.78;47.94;99903.53;5033349;28;20044;-79
2022/08/18 02:41:10;;;;;;;8.65;2.67;;;;;;;16.72;48.15;99915.75;5016428;28;20068;-79
2022/08/18 02:43:37;;;;;;;3.10;1.83;;;;;;;16.74;48.51;99918.34;5033037;28;20045;-82
2022/08/18 02:46:04;;;;;;;2.63;2.17;;;;;;;16.77;48.52;99909.06;5032592;28;20057;-80
2022/08/18 02:48:34;;;;;;;8.32;2.00;;;;;;;16.75;48.27;99904.69;5032843;28;20052;-78
2022/08/18 02:51:04;;;;;;;5.82;2.22;;;;;;;16.90;48.36;99915.00;5000034;28;20037;-77
2022/08/18 02:53:30;;;;;;;;;;;;;;;16.84;48.30;99912.88;5016673;28;20045;-80
2022/08/18 02:56:41;;;;;;;4.75;2.08;;;;;;;16.70;48.77;99928.56;5016254;28;19924;-78
2022/08/18 02:59:04;;;;;;;4.93;2.20;;;;;;;16.71;49.19;99924.84;5016353;28;20575;-84
2022/08/18 03:01:37;;;;;;;8.52;2.30;;;;;;;16.85;49.19;99919.97;5016672;28;20048;-77
2022/08/18 03:04:05;;;;;;;6.80;2.72;;;;;;;17.02;48.93;99927.31;5032975;28;20472;-75
2022/08/18 03:06:33;;;;;;;8.20;2.60;;;;;;;16.97;48.83;99921.50;5016504;28;20562;-82
2022/08/18 03:08:59;;;;;;;7.32;2.20;;;;;;;17.03;49.10;99929.00;5032708;28;20047;-77
2022/08/18 03:11:27;;;;;;;4.68;2.17;;;;;;;17.12;48.96;99933.50;5032898;28;20099;-75
2022/08/18 03:13:53;;;;;;;5.53;2.30;;;;;;;17.15;49.13;99938.63;5032230;28;20152;-75
2022/08/18 03:16:20;;;;;;;13.15;2.85;;;;;;;17.20;49.18;99939.00;5015855;28;20051;-77
2022/08/18 03:18:46;;;;;;;6.43;3.00;;;;;;;17.27;48.81;99930.31;5032223;28;20052;-81
2022/08/18 03:21:17;;;;;;;9.55;2.75;;;;;;;17.32;48.71;99928.00;5016039;28;20037;-78
2022/08/18 03:23:43;;;;;;;9.38;2.63;;;;;;;17.41;48.71;99910.84;5015862;28;20053;-75
2022/08/18 03:26:11;;;;;;;8.15;2.75;;;;;;;17.67;48.81;99906.38;5032012;28;20045;-77
2022/08/18 03:28:39;;;;;;;11.32;2.90;;;;;;;17.81;48.08;99918.56;5015600;28;20037;-77
2022/08/18 03:31:06;;;;;;;8.30;2.60;;;;;;;17.84;47.84;99906.59;5032111;28;20056;-76
2022/08/18 03:33:32;;;;;;;7.28;2.72;;;;;;;17.91;47.88;99934.72;5031873;28;20272;-77
2022/08/18 03:36:13;;;;;;;19.15;3.28;;;;;;;17.96;48.11;99927.81;5033097;28;20075;-77
2022/08/18 03:38:42;;;;;;;9.23;2.90;;;;;;;17.84;48.31;99923.66;5015449;28;20160;-75
2022/08/18 03:41:10;;;;;;;19.25;3.28;;;;;;;17.93;48.42;99921.88;5032962;28;20512;-75
2022/08/18 03:43:36;;;;;;;13.80;3.13;;;;;;;18.02;47.90;99918.25;5015300;28;20139;-76
2022/08/18 03:46:05;;;;;;;7.93;3.40;;;;;;;18.28;48.10;99928.22;4998751;28;20140;-79
2022/08/18 03:48:32;;;;;;;;;;;;;;;18.53;47.45;99929.25;5032153;28;20041;-78
2022/08/18 03:51:03;;;;;;;14.27;4.07;;;;;;;18.56;47.53;99931.66;5032866;28;20015;-74
2022/08/18 03:53:29;;;;;;;23.02;3.38;;;;;;;18.69;47.38;99934.75;5031367;28;20041;-74
2022/08/18 03:55:55;;;;;;;15.35;3.63;;;;;;;18.76;47.10;99935.84;5032799;28;20046;-76
2022/08/18 03:58:21;;;;;;;10.80;3.38;;;;;;;18.85;47.05;99944.88;5015128;28;20041;-77
2022/08/18 04:00:47;;;;;;;12.02;3.17;;;;;;;18.90;46.77;99932.53;5033442;28;20128;-78
2022/08/18 04:03:13;;;;;;;8.40;2.90;;;;;;;19.07;47.03;99932.59;5030376;28;20045;-77
2022/08/18 04:05:39;;;;;;;7.47;2.80;;;;;;;19.23;46.55;99924.56;5015702;28;20114;-76
2022/08/18 04:08:06;;;;;;;15.60;2.78;;;;;;;19.34;45.97;99928.81;5031560;28;20088;-76
2022/08/18 04:10:34;;;;;;;13.60;3.00;;;;;;;19.41;46.07;99927.16;5015531;28;20046;-77
2022/08/18 04:13:04;;;;;;;7.90;3.43;;;;;;;19.38;46.53;99935.63;5033185;28;20037;-77
2022/08/18 04:15:33;;;;;;;8.20;2.97;;;;;;;19.50;46.24;99928.84;5031543;28;20766;-77
2022/08/18 04:18:07;;;;;;;9.02;3.20;;;;;;;19.63;45.89;99931.97;5015611;28;20132;-76
2022/08/18 04:20:34;;;;;;;15.13;3.40;;;;;;;19.73;46.00;99933.69;5015484;28;20076;-76
2022/08/18 04:23:01;;;;;;;11.57;3.30;;;;;;;19.79;45.35;99927.59;5014037;28;20071;-75
2022/08/18 04:25:27;;;;;;;6.32;3.05;;;;;;;19.93;45.49;99932.31;5014556;28;20076;-78
2022/08/18 04:27:59;;;;;;;11.60;3.58;;;;;;;20.08;45.28;99941.53;5032615;28;20069;-76
2022/08/18 04:30:25;;;;;;;10.63;3.15;;;;;;;20.23;45.27;99941.66;5015239;28;20172;-76
2022/08/18 04:32:51;;;;;;;10.63;3.53;;;;;;;20.36;44.67;99933.88;5032339;28;20536;-76
2022/08/18 04:35:17;;;;;;;10.82;3.63;;;;;;;20.39;44.13;99935.41;5032419;28;20389;-76
2022/08/18 04:37:42;;;;;;;10.70;3.45;;;;;;;20.53;44.08;99936.56;5032203;28;20053;-75
2022/08/18 04:40:10;;;;;;;12.80;3.35;;;;;;;20.51;44.26;99927.78;5031239;28;20045;-75
2022/08/18 04:42:36;;;;;;;13.73;3.38;;;;;;;20.76;43.75;99944.84;5014821;28;20412;-75
2022/08/18 04:45:02;;;;;;;11.52;3.67;;;;;;;20.65;43.61;99945.22;5014429;28;20034;-75
2022/08/18 04:47:30;;;;;;;13.48;3.42;;;;;;;20.67;43.54;99948.59;5032451;28;20497;-74
2022/08/18 04:49:55;;;;;;;14.05;3.42;;;;;;;20.63;44.05;99949.97;5014737;28;20087;-75
2022/08/18 04:55:08;;;;;;;10.38;3.45;;;;;;;20.93;44.04;99954.66;5031461;28;20048;-76
2022/08/18 04:57:35;;;;;;;11.00;3.13;;;;;;;21.19;43.72;99948.09;5014931;28;20435;-75
2022/08/18 05:00:04;;;;;;;7.53;2.97;;;;;;;21.34;43.05;99954.53;5031468;28;20046;-77
2022/08/18 05:02:31;;;;;;;10.52;3.30;;;;;;;21.35;43.39;99948.06;5031313;28;20041;-75
2022/08/18 05:04:57;;;;;;;6.90;3.15;;;;;;;21.38;43.32;99939.53;5031222;28;20045;-76
2022/08/18 05:07:24;;;;;;;12.40;3.10;;;;;;;21.39;43.42;99954.81;5014753;28;20076;-75
2022/08/18 05:09:53;;;;;;;12.90;2.80;;;;;;;21.54;43.00;99953.03;5014602;28;20087;-76
2022/08/18 05:12:20;;;;;;;10.40;3.50;;;;;;;21.58;42.68;99954.38;5031402;28;20073;-74
2022/08/18 05:14:46;;;;;;;8.35;3.28;;;;;;;21.63;42.96;99958.47;5030966;28;20057;-76
2022/08/18 05:17:16;;;;;;;13.45;3.55;;;;;;;21.55;42.83;99938.44;5014717;28;20041;-76
2022/08/18 05:19:45;;;;;;;9.52;3.15;;;;;;;21.53;42.87;99945.91;5031114;28;20072;-76
2022/08/18 05:22:18;;;;;;;;;;;;;;;21.77;43.00;99949.50;4998630;28;20144;-77
2022/08/18 05:24:44;;;;;;;12.07;3.95;;;;;;;21.72;43.22;99957.38;5014607;28;19966;-75
2022/08/18 05:27:11;;;;;;;14.10;3.67;;;;;;;21.76;43.58;99955.97;5014264;28;20145;-76
2022/08/18 05:29:37;;;;;;;13.45;3.65;;;;;;;21.75;43.52;99954.28;5030794;28;20072;-76
2022/08/18 05:32:06;;;;;;;13.07;3.80;;;;;;;21.86;43.81;99953.03;5014160;28;20049;-76
2022/08/18 05:34:34;;;;;;;15.98;4.85;;;;;;;22.06;43.57;99956.97;5015478;28;20046;-77
2022/08/18 05:37:15;;;;;;;8.35;2.88;;;;;;;22.28;43.13;99955.28;5017635;28;20041;-76
2022/08/18 05:39:53;;;;;;;7.57;3.10;;;;;;;22.25;43.59;99953.75;5018396;28;20087;-76
2022/08/18 05:42:21;;;;;;;10.23;3.28;;;;;;;22.39;43.86;99954.84;5034250;28;20053;-76
2022/08/18 05:44:49;;;;;;;12.57;3.45;;;;;;;22.69;42.88;99942.13;5017710;28;20041;-77
2022/08/18 05:47:23;;;;;;;3.08;2.78;;;;;;;22.89;42.28;99945.13;5033914;28;20092;-77
2022/08/18 05:49:51;;;;;;;4.60;3.42;;;;;;;22.97;42.38;99952.41;5017326;28;20075;-76
2022/08/18 05:52:33;;;;;;;6.07;2.85;;;;;;;22.85;42.67;99945.69;5017681;28;20400;-76
2022/08/18 05:58:07;;;;;;;9.23;3.25;;;;;;;22.89;42.63;99942.41;5017403;28;20436;-76
2022/08/18 06:00:36;;;;;;;4.18;2.55;;;;;;;22.84;42.56;99938.56;5017341;28;20060;-76
2022/08/18 06:03:11;;;;;;;14.15;3.08;;;;;;;22.95;42.22;99951.75;5017401;28;20041;-77
2022/08/18 06:05:48;;;;;;;5.25;2.85;;;;;;;22.97;42.63;99945.06;5033593;28;20056;-77
2022/08/18 06:08:17;;;;;;;6.57;2.83;;;;;;;22.81;42.89;99944.38;5033562;28;20042;-77
2022/08/18 06:10:50;;;;;;;6.65;2.53;;;;;;;22.85;42.76;99948.41;5016901;28;20112;-77
2022/08/18 06:13:21;;;;;;;8.25;3.20;;;;;;;22.71;43.23;99953.66;5033192;28;20048;-77
2022/08/18 06:15:56;;;;;;;8.90;3.00;;;;;;;22.72;43.36;99951.81;5016879;28;20052;-76
2022/08/18 06:18:37;;;;;;;6.28;2.90;;;;;;;22.80;42.92;99954.44;5016779;28;20163;-75
2022/08/18 06:21:15;;;;;;;6.85;2.60;;;;;;;22.83;42.78;99948.63;5033963;28;20045;-76
2022/08/18 06:23:54;;;;;;;9.30;2.55;;;;;;;23.03;42.10;99925.22;5033146;28;20057;-76
2022/08/18 06:26:24;;;;;;;4.45;2.80;;;;;;;23.31;41.45;99943.63;5016742;28;20203;-76
2022/08/18 06:29:14;;;;;;;6.70;3.03;;;;;;;23.60;40.95;99947.34;5016868;28;20033;-76
2022/08/18 06:31:44;;;;;;;7.70;3.00;;;;;;;23.72;39.54;99943.94;5000447;28;20061;-75
2022/08/18 06:34:13;;;;;;;15.77;3.55;;;;;;;23.51;39.43;99935.69;5034199;28;20120;-77
2022/08/18 06:36:39;;;;;;;;;;;;;;;23.42;40.00;99954.03;5034820;28;20052;-76
2022/08/18 06:39:31;;;;;;;9.57;3.17;;;;;;;23.55;39.89;99950.66;5016565;28;19917;-77
2022/08/18 06:41:57;;;;;;;12.38;3.60;;;;;;;23.56;39.38;99948.75;5034535;28;20049;-76
2022/08/18 06:44:37;;;;;;;13.02;3.75;;;;;;;23.80;38.39;99947.56;5017246;28;20049;-76
2022/08/18 06:47:17;;;;;;;8.88;2.90;;;;;;;24.05;37.90;99953.50;5031756;28;20152;-77
2022/08/18 06:49:58;;;;;;;5.13;3.13;;;;;;;24.25;37.26;99943.59;5016222;28;20088;-76
2022/08/18 06:52:32;;;;;;;6.22;3.33;;;;;;;24.37;36.48;99952.97;5032990;28;20073;-78
2022/08/18 06:55:01;;;;;;;7.63;3.22;;;;;;;24.15;37.22;99949.41;5016705;28;20404;-77
2022/08/18 06:57:51;;;;;;;9.45;3.40;;;;;;;24.44;36.46;99951.16;5016788;28;20060;-78
2022/08/18 07:00:16;;;;;;;9.15;3.35;;;;;;;24.67;35.59;99948.19;5032542;28;20053;-76
2022/08/18 07:03:11;;;;;;;6.05;3.20;;;;;;;24.57;35.83;99942.22;5032594;28;20044;-76
2022/08/18 07:06:00;;;;;;;6.13;2.83;;;;;;;24.17;36.33;99941.84;5030208;28;20045;-76
2022/08/18 07:08:42;;;;;;;5.78;3.03;;;;;;;24.07;36.22;99946.81;5032497;28;20520;-76
2022/08/18 07:11:19;;;;;;;4.38;2.72;;;;;;;24.24;35.74;99936.44;5015902;28;20037;-77
2022/08/18 07:13:51;;;;;;;11.43;2.72;;;;;;;24.66;34.35;99938.28;5032599;28;20045;-76
2022/08/18 07:16:21;;;;;;;8.55;2.30;;;;;;;24.69;34.14;99934.31;5016204;28;20050;-76
2022/08/18 07:18:48;;;;;;;6.47;2.35;;;;;;;24.39;35.21;99947.34;5016188;28;20463;-77
2022/08/18 07:21:28;;;;;;;4.25;2.67;;;;;;;24.33;35.34;99935.25;5016226;28;20140;-76
2022/08/18 07:24:05;;;;;;;10.00;3.55;;;;;;;24.39;36.04;99945.44;5015730;28;20051;-76
2022/08/18 07:27:06;;;;;;;6.88;2.90;;;;;;;24.75;36.06;99938.13;5015517;28;20064;-76
2022/08/18 07:29:36;;;;;;;7.90;2.67;;;;;;;24.85;35.62;99944.91;5015819;28;20053;-76
2022/08/18 07:32:25;;;;;;;4.10;2.70;;;;;;;24.92;35.74;99945.81;5031937;28;20052;-76
2022/08/18 07:34:57;;;;;;;7.28;3.00;;;;;;;24.83;35.56;99936.09;5032303;28;20053;-77
2022/08/18 07:37:28;;;;;;;14.32;2.75;;;;;;;24.81;34.80;99937.31;5033255;28;20072;-75
2022/08/18 07:40:02;;;;;;;9.05;2.50;;;;;;;24.68;34.49;99938.09;5032153;28;20095;-76
2022/08/18 07:42:43;;;;;;;8.75;2.47;;;;;;;24.76;34.92;99943.41;5032292;28;20099;-77
2022/08/18 07:45:30;;;;;;;3.72;2.20;;;;;;;25.18;34.47;99938.84;5015301;28;20041;-77
2022/08/18 07:48:02;;;;;;;4.47;2.67;;;;;;;25.40;34.23;99936.81;5032011;28;20046;-76
2022/08/18 07:50:37;;;;;;;9.50;2.63;;;;;;;25.35;33.93;99942.03;5031702;28;20045;-76
2022/08/18 07:53:11;;;;;;;11.80;2.78;;;;;;;24.91;34.34;99933.19;5031920;28;20038;-76
2022/08/18 07:55:42;;;;;;;10.63;2.80;;;;;;;24.71;34.73;99930.34;5015153;28;20049;-76
2022/08/18 07:58:29;;;;;;;4.93;2.50;;;;;;;24.81;34.16;99915.44;5015182;28;20037;-76
2022/08/18 08:01:10;;;;;;;5.25;2.13;;;;;;;25.04;33.23;99931.56;5032339;28;20136;-76
2022/08/18 08:03:44;;;;;;;11.35;3.05;;;;;;;24.87;32.46;99918.22;5031682;28;20111;-76
2022/08/18 08:06:39;;;;;;;8.00;2.30;;;;;;;24.92;32.75;99923.09;5033128;28;20049;-76
2022/08/18 08:09:28;;;;;;;3.63;2.28;;;;;;;24.99;31.68;99923.97;5031010;28;20049;-77
2022/08/18 08:11:54;;;;;;;8.95;2.47;;;;;;;25.13;31.52;99917.56;5015178;28;20505;-76
2022/08/18 08:14:32;;;;;;;5.93;2.30;;;;;;;25.23;31.82;99916.31;5032627;28;20120;-75
2022/08/18 08:17:10;;;;;;;9.32;2.42;;;;;;;25.11;32.36;99932.47;5015577;28;20041;-75
2022/08/18 08:19:53;;;;;;;6.28;2.60;;;;;;;25.13;32.74;99927.66;5031313;28;20052;-77
2022/08/18 08:22:29;;;;;;;7.95;1.85;;;;;;;25.25;31.92;99917.81;5015440;28;20045;-76
2022/08/18 08:25:02;;;;;;;7.20;2.30;;;;;;;25.59;31.92;99916.03;5014899;28;20049;-75
2022/08/18 08:27:45;;;;;;;2.67;1.95;;;;;;;25.80;31.59;99904.09;5015165;28;20062;-76
2022/08/18 08:30:15;;;;;;;5.60;2.50;;;;;;;25.68;31.29;99896.47;5015205;28;20041;-76
2022/08/18 08:33:11;;;;;;;11.38;2.80;;;;;;;26.08;31.12;99923.13;5014780;28;20492;-76
2022/08/18 08:36:06;;;;;;;6.57;2.65;;;;;;;26.49;31.15;99919.34;5031327;28;20049;-76
2022/08/18 08:38:54;;;;;;;3.65;2.30;;;;;;;26.50;30.30;99910.06;5014152;28;20041;-76
2022/08/18 08:41:29;;;;;;;13.60;2.13;;;;;;;26.42;29.79;99913.00;5032519;28;20054;-76
2022/08/18 08:44:14;;;;;;;8.13;2.10;;;;;;;26.33;30.67;99921.44;5031562;28;20272;-76
2022/08/18 08:46:55;;;;;;;2.08;1.88;;;;;;;25.91;30.95;99900.75;5032505;28;20053;-75
2022/08/18 08:49:43;;;;;;;5.15;1.88;;;;;;;26.09;30.88;99919.31;5031544;28;20080;-76
2022/08/18 08:52:17;;;;;;;5.45;2.30;;;;;;;26.50;30.21;99904.59;5031046;28;20053;-77
2022/08/18 08:54:56;;;;;;;11.15;3.60;;;;;;;26.38;30.08;99918.91;5014824;28;20056;-76
2022/08/18 08:57:28;;;;;;;;;;;;;;;26.43;30.56;99921.00;5032516;28;20513;-77
2022/08/18 08:59:56;;;;;;;4.85;2.05;;;;;;;26.77;30.12;99922.66;5014727;28;20356;-75
2022/08/18 09:02:47;;;;;;;9.70;1.90;;;;;;;26.87;28.77;99919.50;5032012;28;20445;-76
2022/08/18 09:05:22;;;;;;;2.53;1.80;;;;;;;26.70;29.26;99916.34;5030996;28;20135;-77
2022/08/18 09:08:18;;;;;;;8.70;2.10;;;;;;;27.06;28.47;99926.81;5031115;28;20052;-76
2022/08/18 09:11:05;;;;;;;2.58;2.00;;;;;;;27.00;28.66;99922.19;5034364;28;20045;-75
2022/08/18 09:13:59;;;;;;;6.03;2.28;;;;;;;27.15;28.76;99921.97;5034573;28;20049;-76
2022/08/18 09:16:49;;;;;;;16.95;2.35;;;;;;;26.88;29.29;99913.78;5034438;28;20047;-76
2022/08/18 09:19:34;;;;;;;3.65;1.98;;;;;;;26.88;29.42;99912.94;5034685;28;20052;-76
2022/08/18 09:22:29;;;;;;;5.10;2.05;;;;;;;27.07;28.66;99911.19;5034623;28;20128;-75
2022/08/18 09:24:56;;;;;;;6.10;2.05;;;;;;;27.28;28.94;99907.34;5025821;28;20053;-75
2022/08/18 09:27:25;;;;;;;4.38;2.10;;;;;;;27.53;28.67;99905.53;5034551;28;20129;-76
2022/08/18 09:29:56;;;;;;;4.35;1.80;;;;;;;27.93;27.90;99913.56;5034498;28;20052;-75
2022/08/18 09:32:22;;;;;;;5.03;1.77;;;;;;;27.78;27.78;99907.53;5017740;28;20048;-75
2022/08/18 09:35:12;;;;;;;7.47;2.20;;;;;;;27.69;27.86;99915.16;5017700;28;20393;-75
2022/08/18 09:44:09;;;;;;;2.35;1.58;;;;;;;27.82;27.29;99898.63;5018062;28;20068;-75
2022/08/18 09:46:42;;;;;;;5.65;1.75;;;;;;;27.81;27.30;99907.09;5017468;28;20063;-75
2022/08/18 09:49:26;;;;;;;4.60;1.60;;;;;;;27.95;27.00;99902.34;5017576;28;20044;-75
2022/08/18 09:51:55;;;;;;;7.32;1.60;;;;;;;28.03;26.63;99902.09;5034140;28;20050;-76
2022/08/18 09:54:24;;;;;;;2.95;1.70;;;;;;;28.18;26.36;99897.09;5034311;28;20045;-75
2022/08/18 09:56:50;;;;;;;5.45;1.83;;;;;;;28.43;25.48;99899.00;5034549;28;20053;-75
2022/08/18 09:59:31;;;;;;;3.45;1.60;;;;;;;28.75;25.42;99903.34;5017455;28;20404;-75
2022/08/18 10:01:58;;;;;;;1.73;1.38;;;;;;;28.77;25.38;99895.72;5034607;28;20049;-74
2022/08/18 10:04:27;;;;;;;3.53;1.75;;;;;;;28.92;25.34;99899.97;5018270;28;20042;-75
2022/08/18 10:07:13;;;;;;;7.07;1.83;;;;;;;28.88;24.79;99893.25;5018086;28;20037;-76
2022/08/18 10:09:57;;;;;;;4.22;1.70;;;;;;;28.72;24.68;99889.19;5034628;28;20102;-76
2022/08/18 10:13:00;;;;;;;8.93;1.75;;;;;;;28.93;25.01;99898.94;5035557;28;20073;-75
2022/08/18 10:15:28;;;;;;;6.68;1.90;;;;;;;29.15;24.40;99897.44;5035864;28;20125;-76
2022/08/18 10:18:23;;;;;;;6.25;1.40;;;;;;;29.38;23.59;99884.84;5017634;28;20053;-75
2022/08/18 10:21:07;;;;;;;3.78;1.55;;;;;;;29.58;23.48;99895.63;5033764;28;20049;-75
2022/08/18 10:24:12;;;;;;;4.22;1.52;;;;;;;29.47;23.50;99891.72;5017442;28;20053;-75
2022/08/18 10:26:37;;;;;;;3.80;1.95;;;;;;;29.85;22.95;99885.03;5033671;28;20071;-75
2022/08/18 10:29:27;;;;;;;3.75;1.80;;;;;;;30.13;22.16;99879.72;5033295;28;20513;-75
2022/08/18 10:31:55;;;;;;;2.85;1.30;;;;;;;30.49;21.79;99894.38;5016424;28;20052;-76
2022/08/18 10:34:40;;;;;;;3.65;1.55;;;;;;;30.03;22.37;99887.72;5033347;28;20192;-76
2022/08/18 10:37:18;;;;;;;3.22;1.42;;;;;;;29.86;23.14;99881.19;5016981;28;20248;-76
2022/08/18 10:39:49;;;;;;;2.30;1.35;;;;;;;30.19;23.26;99889.81;5017329;28;20131;-76
2022/08/18 10:42:49;;;;;;;4.90;1.58;;;;;;;30.48;22.43;99884.44;5033432;28;20552;-76
2022/08/18 10:45:25;;;;;;;5.07;1.77;;;;;;;30.86;22.29;99885.88;5033709;28;20045;-76
2022/08/18 10:48:04;;;;;;;3.05;1.80;;;;;;;31.36;22.13;99875.06;5016702;28;20045;-74
2022/08/18 10:50:52;;;;;;;5.85;2.05;;;;;;;31.64;22.28;99881.69;5016513;28;20041;-76
2022/08/18 10:53:41;;;;;;;;;;;;;;;32.47;21.99;99885.66;5016879;28;20045;-75
2022/08/18 10:56:27;;;;;;;12.48;1.98;;;;;;;32.22;21.76;99876.91;5032247;28;20343;-76
2022/08/18 10:58:53;;;;;;;6.00;2.25;;;;;;;31.07;22.96;99881.63;5034045;28;20057;-75
2022/08/18 11:01:35;;;;;;;6.70;2.20;;;;;;;31.09;22.77;99885.00;5032728;28;20041;-76
2022/08/18 11:04:01;;;;;;;6.40;1.60;;;;;;;31.73;21.97;99893.19;5015886;28;20057;-76
2022/08/18 11:06:38;;;;;;;5.68;1.67;;;;;;;32.49;21.27;99877.09;5032284;28;20146;-75
2022/08/18 11:09:04;;;;;;;5.63;1.92;;;;;;;32.30;21.72;99884.78;5016041;28;20053;-76
2022/08/18 11:11:42;;;;;;;10.18;2.20;;;;;;;31.78;22.98;99882.22;5016061;28;20042;-76
2022/08/18 11:14:18;;;;;;;3.92;2.03;;;;;;;30.05;25.07;99902.09;5016068;28;20041;-75
2022/08/18 11:17:03;;;;;;;9.25;2.08;;;;;;;29.34;26.16;99892.75;5033093;28;20152;-76
2022/08/18 11:19:39;;;;;;;4.65;2.10;;;;;;;28.80;27.05;99898.00;5033973;28;20045;-75
2022/08/18 11:22:05;;;;;;;5.90;2.13;;;;;;;29.18;26.62;99888.69;5032108;28;20069;-75
2022/08/18 11:24:34;;;;;;;14.43;2.35;;;;;;;30.23;25.64;99893.78;5015772;28;20049;-75
2022/08/18 11:27:06;;;;;;;8.30;2.13;;;;;;;31.05;24.45;99897.59;5032140;28;20480;-76
2022/08/18 11:29:38;;;;;;;2.85;1.60;;;;;;;31.51;23.45;99888.34;5032182;28;20041;-76
2022/08/18 11:32:17;;;;;;;6.82;2.20;;;;;;;31.82;23.81;99881.50;5031690;28;20045;-76
2022/08/18 11:35:04;;;;;;;4.50;2.00;;;;;;;31.96;23.73;99890.31;5015434;28;20083;-76
2022/08/18 11:37:40;;;;;;;5.20;1.80;;;;;;;32.27;22.39;99886.16;5016136;28;20045;-76
2022/08/18 11:40:24;;;;;;;4.18;1.90;;;;;;;32.26;22.16;99894.69;5033305;28;20045;-76
2022/08/18 11:43:12;;;;;;;6.72;1.90;;;;;;;30.81;23.60;99894.06;5031912;28;20500;-76
2022/08/18 11:45:51;;;;;;;5.32;2.15;;;;;;;31.01;23.62;99888.97;4998692;28;20049;-76
2022/08/18 11:48:17;;;;;;;1.67;1.58;;;;;;;30.80;23.81;99892.34;5031728;28;20049;-77
2022/08/18 11:50:53;;;;;;;3.72;1.77;;;;;;;31.58;22.70;99883.50;5014933;28;20037;-76
2022/08/18 11:53:49;;;;;;;8.60;2.38;;;;;;;32.19;22.01;99882.94;5032837;28;20212;-76
2022/08/18 11:56:18;;;;;;;3.50;1.92;;;;;;;33.15;20.89;99874.44;5031984;28;20042;-76
2022/08/18 11:58:57;;;;;;;3.95;2.03;;;;;;;33.02;20.75;99882.00;5015294;28;20078;-76
2022/08/18 12:01:35;;;;;;;3.53;1.95;;;;;;;33.05;20.13;99881.50;5015605;28;20400;-76
2022/08/18 12:04:16;;;;;;;3.63;1.88;;;;;;;31.94;21.12;99881.44;5031851;28;20041;-77
2022/08/18 12:06:52;;;;;;;4.90;1.77;;;;;;;30.21;22.80;99893.19;5014970;28;20049;-77
2022/08/18 12:09:32;;;;;;;8.00;1.80;;;;;;;29.15;23.93;99864.41;5031610;28;20129;-76
2022/08/18 12:12:05;;;;;;;9.63;2.13;;;;;;;29.89;23.55;99886.25;5031387;28;20038;-76
2022/08/18 12:14:50;;;;;;;7.88;2.47;;;;;;;31.20;22.53;99882.19;5031557;28;20041;-76
2022/08/18 12:17:17;;;;;;;9.23;2.17;;;;;;;32.22;20.93;99887.97;5031712;28;20041;-75
2022/08/18 12:19:43;;;;;;;4.10;2.20;;;;;;;33.30;20.32;99882.94;5014799;28;20057;-77
2022/08/18 12:22:19;;;;;;;8.32;2.45;;;;;;;34.42;19.06;99878.50;5031426;28;20512;-76